Time;durP1;ratioP1;P1;durP2;ratioP2;P2;SDS_P1;SDS_P2;PMS_P1;PMS_P2;Temp;Humidity;BMP_temperature;BMP_pressure;BME280_temperature;BME280_humidity;BME280_pressure;Samples;Min_cycle;Max_cycle;Signal;HPM_P1;HPM_P2
2021/12/24 00:00:10;;;;;;;6.72;4.20;;;;;;;20.80;33.99;100531.69;7311862;19;130555;-63
2021/12/24 00:02:38;;;;;;;8.05;4.22;;;;;;;20.77;33.88;100530.28;7311272;19;133230;-62
2021/12/24 00:05:06;;;;;;;15.48;4.28;;;;;;;20.75;34.32;100524.97;7316083;19;131531;-63
2021/12/24 00:07:33;;;;;;;6.88;4.07;;;;;;;20.71;34.13;100520.19;7313534;19;132686;-63
2021/12/24 00:10:00;;;;;;;6.75;4.22;;;;;;;20.68;34.35;100516.03;7314465;19;128795;-64
2021/12/24 00:12:30;;;;;;;6.63;4.10;;;;;;;20.66;34.16;100518.25;7316343;19;129252;-63
2021/12/24 00:15:02;;;;;;;8.27;3.75;;;;;;;20.63;34.13;100524.31;7313697;19;131346;-64
2021/12/24 00:17:33;;;;;;;8.50;3.95;;;;;;;20.62;34.04;100521.84;7315051;19;130650;-63
2021/12/24 00:20:16;;;;;;;8.95;4.20;;;;;;;20.58;34.01;100527.91;7312290;19;129486;-63
2021/12/24 00:36:25;;;;;;;9.10;3.97;;;;;;;20.41;34.32;100518.94;7315732;19;130781;-64
2021/12/24 00:38:52;;;;;;;8.80;4.18;;;;;;;20.39;34.17;100516.41;7312070;19;131450;-64
2021/12/24 00:41:19;;;;;;;6.57;3.80;;;;;;;20.38;34.49;100511.13;7313305;19;129073;-63
2021/12/24 00:43:45;;;;;;;8.27;3.97;;;;;;;20.37;34.85;100520.56;7312949;19;129186;-63
2021/12/24 00:46:12;;;;;;;8.32;4.20;;;;;;;20.34;34.24;100521.09;7313795;19;130585;-63
2021/12/24 00:48:39;;;;;;;6.95;4.30;;;;;;;20.32;34.38;100517.75;7312698;19;131557;-63
2021/12/24 00:56:04;;;;;;;6.00;3.47;;;;;;;20.26;34.53;100514.09;7311969;19;130593;-63
2021/12/24 00:58:31;;;;;;;9.02;3.90;;;;;;;20.23;34.51;100514.66;7314530;19;130535;-63
2021/12/24 01:00:58;;;;;;;5.22;3.50;;;;;;;20.22;34.69;100518.53;7312206;19;130891;-63
2021/12/24 01:03:26;;;;;;;6.53;3.53;;;;;;;20.19;34.79;100519.88;7311790;19;129077;-63
2021/12/24 01:05:53;;;;;;;9.15;4.10;;;;;;;20.20;34.52;100517.97;7310941;19;130620;-63
2021/12/24 01:08:20;;;;;;;6.07;4.00;;;;;;;20.20;34.74;100520.75;7314091;19;130797;-62
2021/12/24 01:10:51;;;;;;;5.50;3.45;;;;;;;20.22;34.33;100513.00;7309901;19;129284;-63
2021/12/24 01:13:18;;;;;;;8.05;3.95;;;;;;;20.21;34.52;100509.34;7312128;19;128885;-64
2021/12/24 01:16:14;;;;;;;6.57;4.30;;;;;;;20.19;34.25;100508.78;7311283;19;130798;-63
2021/12/24 01:21:21;;;;;;;7.55;3.97;;;;;;;20.17;34.30;100502.69;7313598;19;128884;-63
2021/12/24 01:23:55;;;;;;;6.90;4.00;;;;;;;20.14;34.01;100514.31;7311741;19;129736;-63
2021/12/24 01:26:35;;;;;;;4.85;3.50;;;;;;;20.11;34.57;100509.28;7313518;19;130714;-64
2021/12/24 01:45:00;;;;;;;4.82;3.40;;;;;;;19.96;34.38;100493.34;7313759;19;130722;-63
2021/12/24 01:47:26;;;;;;;6.05;3.63;;;;;;;19.98;35.03;100485.56;7310609;19;130637;-63
2021/12/24 01:49:53;;;;;;;6.05;3.60;;;;;;;19.96;34.36;100494.16;7313157;19;131457;-63
2021/12/24 01:52:20;;;;;;;6.72;3.63;;;;;;;19.94;34.86;100485.25;7311425;19;129570;-63
2021/12/24 01:54:47;;;;;;;7.03;3.60;;;;;;;19.93;34.64;100493.84;7314446;19;129164;-63
2021/12/24 01:57:14;;;;;;;4.97;3.40;;;;;;;19.91;34.64;100496.06;7311736;19;130827;-63
2021/12/24 01:59:42;;;;;;;6.93;3.78;;;;;;;19.90;34.67;100497.16;7313210;19;130411;-64
2021/12/24 02:02:09;;;;;;;4.38;3.30;;;;;;;19.89;34.44;100501.03;7312824;19;128802;-64
2021/12/24 02:04:36;;;;;;;6.90;3.90;;;;;;;19.88;34.55;100497.44;7312041;19;130828;-63
2021/12/24 02:07:03;;;;;;;9.75;3.40;;;;;;;19.87;34.69;100483.81;7314982;19;130663;-63
2021/12/24 02:09:30;;;;;;;5.38;3.00;;;;;;;19.87;34.95;100500.47;7312093;19;130768;-62
2021/12/24 02:11:57;;;;;;;4.47;3.22;;;;;;;19.85;34.68;100492.41;7314216;19;130305;-63
2021/12/24 02:14:32;;;;;;;5.50;3.53;;;;;;;19.84;34.87;100490.72;7310123;19;129709;-63
2021/12/24 02:30:38;;;;;;;5.22;3.15;;;;;;;19.77;34.72;100479.84;7312134;19;130501;-64
2021/12/24 02:33:05;;;;;;;4.97;3.03;;;;;;;19.77;34.73;100477.06;7310859;19;128828;-63
2021/12/24 02:35:32;;;;;;;6.30;3.25;;;;;;;19.75;35.06;100475.66;7311824;19;129374;-63
2021/12/24 02:38:01;;;;;;;4.15;2.92;;;;;;;19.75;35.09;100467.34;7313696;19;130904;-63
2021/12/24 02:40:28;;;;;;;4.78;3.47;;;;;;;19.75;35.03;100478.44;7310691;19;130626;-63
2021/12/24 02:42:57;;;;;;;3.78;2.72;;;;;;;19.73;34.88;100466.78;7312184;19;130080;-63
2021/12/24 02:45:29;;;;;;;7.65;3.28;;;;;;;19.72;34.67;100470.63;7309840;19;129186;-63
2021/12/24 02:48:13;;;;;;;5.57;3.00;;;;;;;19.71;34.55;100471.75;7313285;19;133350;-63
2021/12/24 02:56:13;;;;;;;4.43;3.03;;;;;;;19.67;34.95;100471.44;7312356;19;129742;-63
2021/12/24 02:58:43;;;;;;;6.32;3.20;;;;;;;19.66;34.91;100469.75;7310144;19;131383;-63
2021/12/24 03:01:16;;;;;;;4.35;2.95;;;;;;;19.66;34.99;100462.28;7312658;19;130605;-63
2021/12/24 03:03:48;;;;;;;4.90;3.10;;;;;;;19.64;35.01;100464.50;7309313;19;130542;-63
2021/12/24 03:06:16;;;;;;;4.82;3.38;;;;;;;19.63;34.72;100465.59;7311703;19;130425;-63
2021/12/24 03:08:43;;;;;;;4.90;3.10;;;;;;;19.63;35.14;100476.69;7308003;19;130681;-63
2021/12/24 03:11:09;;;;;;;4.93;3.00;;;;;;;19.61;35.26;100466.97;7312859;19;131069;-63
2021/12/24 03:13:37;;;;;;;6.00;3.10;;;;;;;19.61;35.06;100475.28;7309011;19;130616;-63
2021/12/24 03:16:05;;;;;;;4.13;2.78;;;;;;;19.60;34.77;100474.44;7309667;19;131215;-63
2021/12/24 03:18:35;;;;;;;4.20;2.95;;;;;;;19.60;35.05;100479.97;7310470;19;130910;-62
2021/12/24 03:26:42;;;;;;;5.22;3.55;;;;;;;19.58;35.16;100475.81;7306430;19;128969;-63
2021/12/24 03:29:14;;;;;;;4.20;2.95;;;;;;;19.58;34.79;100475.81;7309288;19;130476;-63
2021/12/24 03:31:42;;;;;;;3.55;2.90;;;;;;;19.57;34.97;100472.19;7309540;19;130996;-63
2021/12/24 03:34:11;;;;;;;4.35;2.97;;;;;;;19.56;35.03;100466.91;7311022;19;128924;-63
2021/12/24 03:36:39;;;;;;;4.63;2.85;;;;;;;19.55;35.25;100477.19;7314542;19;130390;-63
2021/12/24 03:39:09;;;;;;;6.07;3.70;;;;;;;19.52;35.27;100470.19;7317173;19;130755;-63
2021/12/24 03:41:36;;;;;;;4.90;2.80;;;;;;;19.52;34.84;100467.44;7317807;19;130522;-63
2021/12/24 03:44:03;;;;;;;4.55;2.88;;;;;;;19.53;35.21;100459.94;7316436;19;128844;-63
2021/12/24 03:46:39;;;;;;;4.95;3.10;;;;;;;19.52;35.07;100461.06;7317616;19;128804;-63
2021/12/24 03:49:15;;;;;;;4.28;3.10;;;;;;;19.51;35.20;100467.69;7315530;19;130438;-63
2021/12/24 03:51:58;;;;;;;4.25;2.80;;;;;;;19.50;35.12;100466.88;7318763;19;130576;-63
2021/12/24 03:57:10;;;;;;;6.78;3.08;;;;;;;19.50;34.98;100471.56;7315120;19;130138;-63
2021/12/24 03:59:36;;;;;;;4.20;2.70;;;;;;;19.50;34.78;100474.34;7317499;19;131978;-63
2021/12/24 04:02:03;;;;;;;4.70;2.75;;;;;;;19.49;35.13;100456.03;7315167;19;130569;-63
2021/12/24 04:04:30;;;;;;;4.65;2.95;;;;;;;19.48;35.04;100463.53;7314097;19;131465;-63
2021/12/24 04:06:57;;;;;;;4.13;2.80;;;;;;;19.49;35.19;100467.13;7315188;19;130706;-62
2021/12/24 04:09:27;;;;;;;4.72;3.03;;;;;;;19.48;35.13;100471.00;7314587;19;131178;-63
2021/12/24 04:11:54;;;;;;;4.75;2.97;;;;;;;19.48;35.32;100462.66;7317270;19;132757;-63
2021/12/24 04:14:22;;;;;;;5.63;3.47;;;;;;;19.47;34.99;100470.16;7314490;19;128939;-63
2021/12/24 04:16:49;;;;;;;3.22;2.60;;;;;;;19.46;34.85;100462.09;7315621;19;129621;-62
2021/12/24 04:24:53;;;;;;;5.63;3.05;;;;;;;19.45;35.02;100465.97;7315721;19;129121;-63
2021/12/24 04:27:28;;;;;;;3.72;2.55;;;;;;;19.43;34.94;100468.19;7315489;19;130850;-63
2021/12/24 04:30:05;;;;;;;4.57;2.75;;;;;;;19.41;34.79;100460.13;7316924;19;131286;-63
2021/12/24 04:33:19;;;;;;;4.47;2.67;;;;;;;19.41;34.84;100457.34;7313744;19;130495;-63
2021/12/24 04:38:12;;;;;;;4.25;2.78;;;;;;;19.42;35.31;100466.50;7312743;19;128956;-63
2021/12/24 04:51:49;;;;;;;7.20;2.90;;;;;;;19.36;35.21;100472.00;7311870;19;131169;-63
2021/12/24 05:10:23;;;;;;;4.07;2.50;;;;;;;19.33;35.09;100466.97;7315835;19;128874;-63
2021/12/24 05:12:50;;;;;;;6.95;2.60;;;;;;;19.34;35.22;100465.88;7312814;19;133111;-63
2021/12/24 05:15:18;;;;;;;3.53;2.17;;;;;;;19.33;35.36;100457.81;7316370;19;131214;-61
2021/12/24 05:18:11;;;;;;;4.40;2.97;;;;;;;19.33;35.07;100463.38;7311896;19;129723;-63
2021/12/24 05:23:22;;;;;;;4.03;2.50;;;;;;;19.32;35.13;100470.84;7311547;19;131424;-63
2021/12/24 05:25:50;;;;;;;2.80;2.13;;;;;;;19.33;35.35;100480.00;7313533;19;130639;-64
2021/12/24 05:28:18;;;;;;;3.58;2.45;;;;;;;19.33;34.91;100480.00;7312531;19;130186;-63
2021/12/24 05:30:45;;;;;;;4.28;2.40;;;;;;;19.33;35.20;100486.38;7314844;19;130975;-63
2021/12/24 05:33:14;;;;;;;3.85;2.78;;;;;;;19.34;34.93;100476.13;7314851;19;131167;-63
2021/12/24 05:35:42;;;;;;;4.10;2.45;;;;;;;19.33;35.21;100475.28;7312979;19;131637;-62
2021/12/24 05:38:11;;;;;;;3.33;2.22;;;;;;;19.33;35.37;100475.28;7316007;19;131158;-63
2021/12/24 05:40:38;;;;;;;4.40;2.60;;;;;;;19.33;35.34;100483.59;7310701;19;129088;-63
2021/12/24 05:43:05;;;;;;;3.13;2.05;;;;;;;19.34;34.92;100487.22;7313861;19;131434;-63
2021/12/24 05:45:32;;;;;;;3.17;2.33;;;;;;;19.32;34.95;100490.25;7312069;19;130788;-63
2021/12/24 05:47:59;;;;;;;3.70;2.50;;;;;;;19.33;35.36;100489.16;7315104;19;128895;-63
2021/12/24 05:50:26;;;;;;;4.28;2.50;;;;;;;19.31;35.01;100499.69;7313527;19;131018;-63
2021/12/24 05:52:53;;;;;;;3.92;2.30;;;;;;;19.31;35.37;100494.16;7314782;19;131012;-63
2021/12/24 05:55:19;;;;;;;4.15;2.60;;;;;;;19.30;34.85;100491.63;7311557;19;130921;-63
2021/12/24 05:57:46;;;;;;;3.85;2.60;;;;;;;19.31;35.35;100488.59;7312596;19;128931;-64
2021/12/24 06:00:15;;;;;;;4.20;2.50;;;;;;;19.30;35.10;100473.06;7311604;19;129443;-63
2021/12/24 06:02:42;;;;;;;3.47;2.42;;;;;;;19.29;35.30;100474.16;7312037;19;130515;-63
2021/12/24 06:05:09;;;;;;;3.40;2.33;;;;;;;19.28;35.21;100475.25;7310800;19;131085;-64
2021/12/24 06:07:36;;;;;;;4.97;2.60;;;;;;;19.28;35.34;100472.47;7311282;19;129176;-63
2021/12/24 06:10:04;;;;;;;3.65;2.00;;;;;;;19.28;34.89;100474.41;7313463;19;129522;-63
2021/12/24 06:12:31;;;;;;;3.88;2.28;;;;;;;19.28;34.92;100483.56;7308995;19;131535;-64
2021/12/24 06:15:03;;;;;;;4.40;2.50;;;;;;;19.26;35.18;100480.22;7313421;19;130565;-63
2021/12/24 06:17:30;;;;;;;4.47;2.53;;;;;;;19.27;35.00;100486.59;7310475;19;129099;-63
2021/12/24 06:19:57;;;;;;;4.45;2.40;;;;;;;19.24;35.36;100490.72;7311946;19;128988;-63
2021/12/24 06:22:24;;;;;;;5.28;2.40;;;;;;;19.24;35.45;100493.50;7309063;19;131720;-63
2021/12/24 06:24:50;;;;;;;4.65;2.50;;;;;;;19.23;35.37;100486.28;7309191;19;131394;-63
2021/12/24 06:27:17;;;;;;;3.08;2.35;;;;;;;19.27;35.10;100495.75;7309228;19;129486;-63
2021/12/24 06:29:44;;;;;;;5.07;1.90;;;;;;;19.32;35.20;100490.25;7311313;19;129384;-62
2021/12/24 06:32:11;;;;;;;4.22;2.58;;;;;;;19.40;35.46;100486.16;7309600;19;131058;-62
2021/12/24 06:34:38;;;;;;;5.47;2.50;;;;;;;19.49;35.27;100487.41;7311390;19;130969;-63
2021/12/24 06:37:04;;;;;;;4.05;2.30;;;;;;;19.60;35.20;100502.19;7310575;19;131484;-63
2021/12/24 06:39:31;;;;;;;4.28;2.30;;;;;;;19.74;34.79;100498.97;7310152;19;129779;-62
2021/12/24 06:41:58;;;;;;;6.30;2.53;;;;;;;19.84;35.04;100494.34;7310827;19;130662;-62
2021/12/24 06:44:25;;;;;;;5.65;2.05;;;;;;;20.01;34.46;100495.34;7308397;19;130325;-63
2021/12/24 06:46:52;;;;;;;4.63;2.00;;;;;;;20.16;34.32;100492.69;7308907;19;129864;-63
2021/12/24 06:49:19;;;;;;;4.15;2.05;;;;;;;20.35;34.12;100492.22;7306025;19;130157;-63
2021/12/24 06:51:46;;;;;;;4.35;2.20;;;;;;;20.52;33.84;100489.25;7310915;19;131020;-62
2021/12/24 06:54:13;;;;;;;14.13;2.28;;;;;;;20.66;34.33;100490.44;7300955;19;131456;-62
2021/12/24 06:56:46;;;;;;;6.30;2.97;;;;;;;20.77;34.07;100484.94;7310315;19;129285;-62
2021/12/24 06:59:13;;;;;;;8.93;2.88;;;;;;;20.86;34.16;100500.84;7310139;19;129269;-63
2021/12/24 07:01:40;;;;;;;7.57;3.42;;;;;;;20.95;34.39;100497.53;7309334;19;131011;-63
2021/12/24 07:04:07;;;;;;;9.27;2.95;;;;;;;21.01;33.93;100508.41;7311016;19;131156;-62
2021/12/24 07:06:35;;;;;;;8.35;3.33;;;;;;;21.08;33.95;100496.19;7312445;19;128990;-63
2021/12/24 07:09:02;;;;;;;9.10;3.30;;;;;;;21.12;33.62;100497.31;7309526;19;130830;-62
2021/12/24 07:11:29;;;;;;;8.05;3.25;;;;;;;21.13;33.53;100497.06;7317883;19;130502;-62
2021/12/24 07:13:56;;;;;;;7.75;3.20;;;;;;;21.13;33.25;100494.28;7316574;19;130590;-63
2021/12/24 07:16:22;;;;;;;7.53;3.10;;;;;;;21.14;33.41;100495.94;7317708;19;131229;-63
2021/12/24 07:18:49;;;;;;;6.43;3.13;;;;;;;21.12;33.18;100498.16;7319253;19;129034;-62
2021/12/24 07:21:16;;;;;;;8.57;3.08;;;;;;;21.10;33.14;100494.81;7316859;19;131397;-62
2021/12/24 07:23:42;;;;;;;11.98;3.60;;;;;;;21.06;33.23;100488.97;7318002;19;130595;-62
2021/12/24 07:26:09;;;;;;;6.45;3.28;;;;;;;21.02;33.11;100496.16;7315984;19;129450;-63
2021/12/24 07:28:36;;;;;;;10.60;3.30;;;;;;;20.99;33.47;100502.28;7319317;19;128928;-62
2021/12/24 07:31:02;;;;;;;8.60;3.20;;;;;;;20.96;33.71;100504.78;7314644;19;130691;-63
2021/12/24 07:33:29;;;;;;;6.85;2.90;;;;;;;20.92;33.41;100507.25;7319579;19;130483;-62
2021/12/24 07:35:56;;;;;;;7.57;3.25;;;;;;;20.87;33.66;100512.78;7314306;19;129015;-62
2021/12/24 07:38:23;;;;;;;14.18;3.50;;;;;;;20.84;33.42;100508.63;7319758;19;128947;-63
2021/12/24 07:40:50;;;;;;;8.55;3.22;;;;;;;20.79;33.46;100502.19;7315013;19;130723;-62
2021/12/24 07:43:16;;;;;;;7.78;2.80;;;;;;;20.74;33.34;100501.03;7319202;19;131253;-62
2021/12/24 07:45:45;;;;;;;7.97;2.95;;;;;;;20.71;33.24;100503.53;7316098;19;129752;-62
2021/12/24 07:48:15;;;;;;;7.60;3.00;;;;;;;20.67;33.37;100499.63;7316954;19;128803;-62
2021/12/24 07:53:14;;;;;;;8.80;3.20;;;;;;;20.65;33.60;100499.88;7317202;19;130570;-63
2021/12/24 07:55:43;;;;;;;10.35;3.10;;;;;;;20.66;33.32;100501.56;7317837;19;128877;-61
2021/12/24 07:58:10;;;;;;;10.70;2.70;;;;;;;20.67;33.63;100489.34;7314665;19;129066;-62
2021/12/24 08:00:39;;;;;;;7.13;3.05;;;;;;;20.69;33.78;100491.84;7315337;19;130817;-63
2021/12/24 08:03:07;;;;;;;6.65;3.08;;;;;;;20.72;33.65;100491.31;7312821;19;130479;-63
2021/12/24 08:05:39;;;;;;;11.07;3.33;;;;;;;20.75;33.75;100485.22;7316714;19;129150;-63
2021/12/24 08:08:07;;;;;;;9.27;3.15;;;;;;;20.81;33.54;100486.09;7316453;19;130546;-64
2021/12/24 08:10:34;;;;;;;8.80;3.22;;;;;;;20.88;33.31;100484.75;7317470;19;130700;-63
2021/12/24 08:13:02;;;;;;;7.68;3.30;;;;;;;20.97;33.28;100486.97;7314357;19;130583;-64
2021/12/24 08:15:29;;;;;;;8.88;2.85;;;;;;;21.02;33.34;100487.00;7317435;19;129381;-63
2021/12/24 08:17:56;;;;;;;10.27;3.33;;;;;;;21.09;33.56;100483.97;7315733;19;129414;-63
2021/12/24 08:20:25;;;;;;;8.15;2.70;;;;;;;21.16;33.55;100493.72;7316437;19;133956;-63
2021/12/24 08:22:54;;;;;;;9.32;2.88;;;;;;;21.22;33.42;100491.78;7315527;19;130566;-63
2021/12/24 08:25:22;;;;;;;8.75;3.00;;;;;;;21.31;33.07;100489.28;7315814;19;129445;-63
2021/12/24 08:27:49;;;;;;;9.07;3.10;;;;;;;21.36;33.42;100484.56;7317100;19;129077;-62
2021/12/24 08:30:16;;;;;;;11.77;3.15;;;;;;;21.41;33.34;100488.47;7314600;19;130627;-63
2021/12/24 08:32:43;;;;;;;17.33;3.45;;;;;;;21.46;33.17;100478.19;7318286;19;131359;-62
2021/12/24 08:35:13;;;;;;;35.22;4.20;;;;;;;21.52;33.33;100474.34;7315291;19;131950;-63
2021/12/24 08:37:41;;;;;;;16.52;3.65;;;;;;;21.60;33.43;100474.88;7317540;19;129472;-61
2021/12/24 08:40:08;;;;;;;20.58;3.70;;;;;;;21.65;33.52;100470.16;7312118;19;130686;-63
2021/12/24 08:42:35;;;;;;;27.60;3.70;;;;;;;21.69;33.64;100467.66;7313544;19;131352;-62
2021/12/24 08:45:04;;;;;;;20.52;3.60;;;;;;;21.72;33.13;100461.53;7312330;19;129426;-62
2021/12/24 08:47:31;;;;;;;12.20;3.45;;;;;;;21.75;33.23;100463.75;7316756;19;129332;-62
2021/12/24 08:49:58;;;;;;;14.70;3.15;;;;;;;21.77;33.05;100460.69;7316337;19;130593;-62
2021/12/24 08:52:25;;;;;;;14.45;3.92;;;;;;;21.81;33.47;100468.19;7313715;19;130608;-63
2021/12/24 08:54:51;;;;;;;17.00;3.67;;;;;;;21.84;33.19;100466.81;7315121;19;129370;-62
2021/12/24 08:57:18;;;;;;;13.82;3.13;;;;;;;21.87;33.36;100463.47;7311584;19;128964;-63
2021/12/24 08:59:45;;;;;;;16.05;3.00;;;;;;;21.91;33.25;100470.16;7314680;19;130297;-62
2021/12/24 09:02:16;;;;;;;11.45;3.00;;;;;;;21.94;33.03;100466.81;7307228;19;130568;-62
2021/12/24 09:04:43;;;;;;;13.15;3.10;;;;;;;21.96;32.90;100461.81;7309408;19;129705;-63
2021/12/24 09:07:10;;;;;;;18.73;3.90;;;;;;;21.98;33.03;100475.44;7309193;19;129194;-62
2021/12/24 09:09:37;;;;;;;10.48;3.20;;;;;;;22.00;32.98;100467.63;7302902;19;131389;-63
2021/12/24 09:12:04;;;;;;;13.65;3.35;;;;;;;22.01;32.61;100468.47;7309480;19;130647;-63
2021/12/24 09:14:31;;;;;;;12.90;3.20;;;;;;;22.01;32.86;100472.09;7314358;19;130649;-62
2021/12/24 09:17:00;;;;;;;12.05;3.40;;;;;;;22.02;32.52;100470.97;7313362;19;130371;-62
2021/12/24 09:19:29;;;;;;;8.98;3.28;;;;;;;22.02;32.82;100464.56;7312803;19;130660;-62
2021/12/24 09:21:57;;;;;;;13.15;3.17;;;;;;;22.01;32.95;100462.88;7314915;19;132517;-62
2021/12/24 09:24:27;;;;;;;8.70;3.22;;;;;;;22.00;32.82;100461.22;7313636;19;131233;-62
2021/12/24 09:26:56;;;;;;;9.02;3.10;;;;;;;21.98;32.88;100464.28;7314511;19;130540;-62
2021/12/24 09:29:24;;;;;;;9.00;3.33;;;;;;;21.96;32.59;100458.16;7306545;19;130637;-62
2021/12/24 09:31:51;;;;;;;8.15;3.13;;;;;;;21.93;32.56;100453.16;7310364;19;130743;-61
2021/12/24 09:34:18;;;;;;;10.73;3.28;;;;;;;21.91;32.53;100459.00;7308375;19;130103;-63
2021/12/24 09:36:45;;;;;;;10.15;3.55;;;;;;;21.86;33.03;100458.19;7315518;19;129040;-62
2021/12/24 09:39:11;;;;;;;10.05;2.72;;;;;;;21.85;32.74;100453.72;7313680;19;131545;-62
2021/12/24 09:41:39;;;;;;;14.80;3.55;;;;;;;21.81;33.18;100445.09;7314657;19;131729;-61
2021/12/24 09:44:06;;;;;;;19.73;4.18;;;;;;;21.74;33.05;100459.31;7311993;19;129448;-62
2021/12/24 09:46:35;;;;;;;12.20;3.80;;;;;;;21.70;33.09;100458.19;7302150;19;131212;-62
2021/12/24 09:49:03;;;;;;;7.65;3.58;;;;;;;21.66;32.83;100459.88;7312328;19;130666;-62
2021/12/24 09:51:36;;;;;;;9.43;3.05;;;;;;;21.63;32.98;100461.25;7312498;19;130622;-62
2021/12/24 09:54:09;;;;;;;12.23;3.42;;;;;;;21.61;33.01;100465.44;7314965;19;130455;-62
2021/12/24 09:56:36;;;;;;;11.77;3.50;;;;;;;21.57;33.20;100465.16;7311095;19;130170;-62
2021/12/24 09:59:03;;;;;;;13.73;3.20;;;;;;;21.57;33.02;100461.53;7313656;19;131328;-62
2021/12/24 10:01:31;;;;;;;11.48;2.88;;;;;;;21.55;33.36;100466.53;7312678;19;131063;-62
2021/12/24 10:04:04;;;;;;;8.57;3.00;;;;;;;21.56;33.08;100468.19;7313194;19;128755;-62
2021/12/24 10:06:31;;;;;;;7.25;3.35;;;;;;;21.55;33.21;100466.53;7311588;19;129341;-62
2021/12/24 10:09:11;;;;;;;9.05;3.42;;;;;;;21.54;32.93;100465.69;7311825;19;130589;-63
2021/12/24 10:11:57;;;;;;;9.70;3.78;;;;;;;21.52;33.41;100460.44;7313562;19;131439;-62
2021/12/24 10:14:36;;;;;;;7.90;3.42;;;;;;;21.51;33.37;100464.31;7308923;19;129877;-62
2021/12/24 10:17:11;;;;;;;9.82;3.05;;;;;;;21.52;33.10;100463.22;7311320;19;129009;-62
2021/12/24 10:19:56;;;;;;;13.30;3.17;;;;;;;21.54;33.41;100464.88;7313112;19;132564;-62
2021/12/24 10:22:54;;;;;;;10.63;3.25;;;;;;;21.52;33.04;100466.00;7309724;19;130992;-62
2021/12/24 10:25:27;;;;;;;12.80;3.28;;;;;;;21.52;33.60;100462.34;7312348;19;128959;-62
2021/12/24 10:27:54;;;;;;;9.95;3.58;;;;;;;21.51;33.10;100455.97;7311813;19;128988;-62
2021/12/24 10:30:31;;;;;;;9.75;3.50;;;;;;;21.50;33.25;100448.72;7312147;19;130661;-63
2021/12/24 10:33:07;;;;;;;;;;;;;;;21.50;33.31;100459.00;7314939;19;130577;-62
2021/12/24 10:35:35;;;;;;;7.53;2.90;;;;;;;21.51;33.35;100455.13;7310263;19;128933;-62
2021/12/24 10:38:19;;;;;;;7.82;3.28;;;;;;;21.51;33.10;100463.47;7312611;19;131127;-62
2021/12/24 10:40:55;;;;;;;8.38;3.10;;;;;;;21.49;33.34;100458.19;7308440;19;130701;-62
2021/12/24 10:43:35;;;;;;;11.40;3.20;;;;;;;21.49;33.40;100455.41;7312096;19;130598;-63
2021/12/24 10:46:12;;;;;;;10.15;2.88;;;;;;;21.48;33.59;100450.91;7310062;19;128951;-62
2021/12/24 10:48:48;;;;;;;7.22;2.80;;;;;;;21.48;33.34;100450.91;7310290;19;129081;-62
2021/12/24 10:51:42;;;;;;;7.97;3.08;;;;;;;21.48;33.59;100450.91;7311928;19;131353;-62
2021/12/24 10:54:07;;;;;;;10.52;3.30;;;;;;;21.50;33.54;100451.50;7308543;19;130618;-63
2021/12/24 10:56:34;;;;;;;6.47;3.17;;;;;;;21.50;33.08;100448.72;7311470;19;128821;-62
2021/12/24 10:59:02;;;;;;;8.00;3.28;;;;;;;21.50;33.18;100448.72;7300966;19;129350;-62
2021/12/24 11:01:29;;;;;;;10.52;3.00;;;;;;;21.50;33.53;100445.94;7308988;19;131793;-62
2021/12/24 11:03:55;;;;;;;7.65;3.63;;;;;;;21.50;33.36;100443.16;7306482;19;130447;-62
2021/12/24 11:06:29;;;;;;;8.35;3.10;;;;;;;21.51;33.12;100444.84;7303237;19;129271;-62
2021/12/24 11:08:57;;;;;;;11.57;3.20;;;;;;;21.48;33.60;100437.00;7307754;19;129836;-63
2021/12/24 11:11:23;;;;;;;11.85;3.25;;;;;;;21.47;33.24;100440.91;7297449;19;131424;-63
2021/12/24 11:13:52;;;;;;;8.15;3.17;;;;;;;21.50;33.47;100436.75;7309401;19;131554;-63
2021/12/24 11:16:21;;;;;;;11.02;3.17;;;;;;;21.54;33.32;100431.47;7309631;19;130331;-63
2021/12/24 11:19:02;;;;;;;6.28;2.70;;;;;;;21.60;33.80;100428.38;7311605;19;130137;-63
2021/12/24 11:21:32;;;;;;;8.05;3.08;;;;;;;21.63;33.48;100421.44;7308050;19;130716;-63
2021/12/24 11:23:58;;;;;;;8.52;3.15;;;;;;;21.62;33.34;100422.56;7308596;19;130728;-63
2021/12/24 11:26:28;;;;;;;8.57;2.92;;;;;;;21.62;33.35;100433.69;7308761;19;129650;-63
2021/12/24 11:28:56;;;;;;;9.80;3.38;;;;;;;21.61;33.28;100435.63;7310477;19;128960;-63
2021/12/24 11:31:27;;;;;;;9.98;3.60;;;;;;;21.61;33.05;100432.03;7309967;19;130626;-63
2021/12/24 11:33:55;;;;;;;9.85;3.25;;;;;;;21.60;33.12;100427.56;7309715;19;131307;-63
2021/12/24 11:36:24;;;;;;;9.90;3.60;;;;;;;21.60;33.22;100422.00;7312617;19;129837;-63
2021/12/24 11:39:07;;;;;;;9.85;2.95;;;;;;;21.61;33.10;100421.72;7309184;19;129570;-63
2021/12/24 11:41:37;;;;;;;10.13;3.50;;;;;;;21.58;33.32;100427.00;7312864;19;130725;-63
2021/12/24 11:44:07;;;;;;;8.77;3.42;;;;;;;21.58;33.08;100432.56;7307791;19;130710;-63
2021/12/24 11:46:37;;;;;;;7.07;3.00;;;;;;;21.59;33.15;100434.25;7309976;19;128937;-63
2021/12/24 11:49:05;;;;;;;6.45;2.85;;;;;;;21.57;33.24;100431.75;7309417;19;129079;-63
2021/12/24 11:51:40;;;;;;;7.95;2.97;;;;;;;21.59;33.23;100425.91;7310765;19;131437;-63
2021/12/24 11:54:09;;;;;;;9.48;3.10;;;;;;;21.58;33.47;100418.66;7308586;19;131025;-63
2021/12/24 11:56:42;;;;;;;8.23;3.22;;;;;;;21.58;33.40;100416.72;7314687;19;130752;-63
2021/12/24 11:59:08;;;;;;;7.15;3.28;;;;;;;21.56;33.63;100402.25;7316902;19;130999;-63
2021/12/24 12:01:39;;;;;;;7.50;2.70;;;;;;;21.57;33.68;100405.84;7314587;19;131469;-63
2021/12/24 12:04:20;;;;;;;8.02;2.95;;;;;;;21.57;33.56;100411.41;7318384;19;131405;-62
2021/12/24 12:06:46;;;;;;;6.85;2.88;;;;;;;21.54;34.04;100415.59;7315264;19;128888;-63
2021/12/24 12:09:13;;;;;;;8.88;3.30;;;;;;;21.55;33.89;100405.28;7318465;19;129741;-63
2021/12/24 12:11:43;;;;;;;7.70;3.15;;;;;;;21.56;33.79;100415.31;7316047;19;130665;-62
2021/12/24 12:14:10;;;;;;;7.78;3.33;;;;;;;21.57;33.68;100419.78;7317003;19;131279;-63
2021/12/24 12:16:43;;;;;;;9.00;2.95;;;;;;;21.59;34.08;100417.53;7315888;19;128774;-63
2021/12/24 12:19:26;;;;;;;6.22;2.90;;;;;;;21.59;33.95;100423.13;7317746;19;129046;-63
2021/12/24 12:22:17;;;;;;;6.00;2.90;;;;;;;21.60;34.32;100428.38;7318767;19;131089;-63
2021/12/24 12:27:26;;;;;;;6.95;3.05;;;;;;;21.64;34.29;100431.47;7316857;19;129088;-63
2021/12/24 12:29:53;;;;;;;5.97;2.92;;;;;;;21.66;33.99;100429.25;7314139;19;130101;-63
2021/12/24 12:32:24;;;;;;;5.05;2.70;;;;;;;21.68;34.48;100421.44;7316989;19;131391;-63
2021/12/24 12:34:59;;;;;;;8.40;2.95;;;;;;;21.71;34.37;100429.22;7314234;19;131172;-63
2021/12/24 12:37:27;;;;;;;6.38;3.15;;;;;;;21.75;34.44;100423.94;7315406;19;129026;-62
2021/12/24 12:40:27;;;;;;;6.88;3.63;;;;;;;21.79;34.19;100413.91;7312773;19;129061;-62
2021/12/24 12:42:56;;;;;;;13.32;3.53;;;;;;;21.82;34.22;100408.63;7314958;19;130937;-62
2021/12/24 12:45:26;;;;;;;11.15;3.72;;;;;;;21.86;34.21;100405.28;7312453;19;131077;-63
2021/12/24 12:48:01;;;;;;;11.57;4.32;;;;;;;21.87;33.72;100395.81;7305594;19;130374;-62
2021/12/24 12:50:29;;;;;;;14.88;3.78;;;;;;;21.89;33.83;100399.16;7314622;19;129232;-63
2021/12/24 12:53:35;;;;;;;18.00;4.32;;;;;;;21.90;34.16;100400.81;7313595;19;131385;-63
2021/12/24 12:56:12;;;;;;;20.42;4.10;;;;;;;21.92;33.79;100404.13;7314765;19;130627;-63
2021/12/24 12:58:41;;;;;;;11.40;3.30;;;;;;;21.93;33.65;100401.09;7315348;19;128855;-63
2021/12/24 13:01:20;;;;;;;17.10;4.20;;;;;;;21.96;33.81;100405.25;7302203;19;128919;-63
2021/12/24 13:03:56;;;;;;;15.45;3.53;;;;;;;21.97;33.49;100399.38;7303083;19;130470;-62
2021/12/24 13:06:23;;;;;;;13.57;4.28;;;;;;;21.97;33.85;100401.34;7310016;19;130123;-62
2021/12/24 13:08:51;;;;;;;14.88;4.93;;;;;;;21.98;34.04;100392.69;7314397;19;128865;-63
2021/12/24 13:11:20;;;;;;;19.67;4.53;;;;;;;21.99;33.96;100387.97;7315907;19;128824;-62
2021/12/24 13:14:00;;;;;;;13.07;3.92;;;;;;;22.01;33.92;100380.19;7313805;19;131218;-63